Three Way, Tennessee
Current Conditions -  °F | °C
As of 6:36 AM on Friday 31 Oct 2014 (Local Time) from KMKL Reporting Station
Moderate Fog Moderate Fog  
Wind Chill: 45°   Ceiling: 200
Heat Index: 45°   Visibility: 0.5mi
Dew Point: 45°   Wind: 0mph
Humidity: 100%   Direction: NA
Pressure: 30"   Gusts: NA
Location:  35.8457°N, 88.9119°W
Report Text: KMKL 311136Z AUTO 00000KT 1/2SM FG VV002 07/07 A3000 RMK AO2
Loading
Personal Weather Stations






























Interactive Weather Map
Tropical Storm Tracking
New forecast layout! Learn more

10-Day Weather Forecast

Advertisements
Track Severe Weather on mobile